Flight Track Log - Related Links

Times and Time Zones

All times are in EDT time to prevent confusion due to time zone crossing. See the UAL5914 flight status page for this flight to view local times or setup timezone preferences in your user account.

Time Position Orientation Groundspeed Altitude Reporting Facility
EDT Latitude Longitude Course Direction KTS MPH feet Rate Location/Type
Wed 02:26:36 PM 41.9158 -91.5967 54° Northeast 256 295 4,100  Level Chicago Center
Wed 02:27:38 PM 41.9608 -91.5186 52° Northeast 259 298 6,700 2,758 Climbing Chicago Center
Wed 02:28:40 PM 42.0064 -91.4356 54° Northeast 272 313 9,800 2,129 Climbing Chicago Center
Wed 02:29:00 PM 42.0501 -91.3831 56° Northeast  Level FlightAware Approximate
Wed 02:29:42 PM 42.0592 -91.3381 54° Northeast 307 353 11,100  Level Chicago Center
Wed 02:30:00 PM 42.0802 -91.3162 62° Northeast  Level FlightAware Approximate
Wed 02:30:44 PM 42.1342 -91.2017 53° Northeast 364 419 12,900  Level Chicago Center
Wed 02:31:00 PM 42.1274 -91.2165 54° Northeast  Level FlightAware Approximate
Wed 02:31:46 PM 42.1981 -91.0847 54° Northeast 384 442 14,900  Level Chicago Center
Wed 02:32:48 PM 42.2628 -90.9675 53° Northeast 393 452 16,900 1,839 Climbing Chicago Center
Wed 02:33:50 PM 42.3275 -90.8475 54° Northeast 399 459 18,700 1,742 Climbing Chicago Center
Wed 02:34:52 PM 42.3911 -90.7269 54° Northeast 400 460 20,500 1,113 Climbing Chicago Center
Wed 02:35:54 PM 42.4181 -90.5458 79° East 418 481 21,000 242 Climbing Chicago Center
Wed 02:36:56 PM 42.4317 -90.3833 83° East 437 503 21,000  Level Chicago Center
Wed 02:37:58 PM 42.4300 -90.2158 91° East 448 516 21,000  Level Chicago Center
Wed 02:39:01 PM 42.4253 -90.0497 92° East 446 513 21,000  Level Chicago Center
Wed 02:40:03 PM 42.4200 -89.8642 92° East 445 512 21,000  Level Chicago Center
Wed 02:41:05 PM 42.4147 -89.6961 92° East 446 513 21,000 -145 Level Chicago Center
Wed 02:42:07 PM 42.4106 -89.5308 92° East 441 507 20,700 -968 Descending Chicago Center
Wed 02:43:09 PM 42.4039 -89.3419 93° East 433 498 19,000 -1,500 Descending Chicago Center
Wed 02:44:11 PM 42.3992 -89.1878 92° East 416 479 17,600 -1,355 Descending Chicago Center
Wed 02:45:13 PM 42.4178 -89.0369 80° East 406 467 16,200 -1,694 Descending Chicago Center
Wed 02:46:15 PM 42.4378 -88.8883 80° East 404 465 14,100 -2,661 Descending Chicago Center
Wed 02:47:17 PM 42.4622 -88.7272 78° East 381 438 10,700 -2,081 Descending Chicago Center
Wed 02:48:19 PM 42.4317 -88.6164 110° East 319 367 9,800 -871 Descending Chicago Center
Wed 02:49:21 PM 42.3919 -88.5319 122° Southeast 278 320 8,900 -629 Descending Chicago Center
Wed 02:50:23 PM 42.3522 -88.4528 124° Southeast 262 302 8,500 -823 Descending Chicago Center
Wed 02:51:25 PM 42.3108 -88.3708 124° Southeast 259 298 7,200 -720 Descending Chicago Center
Wed 02:52:28 PM 42.2697 -88.2875 124° Southeast 264 304 7,000 -96 Descending Chicago Center
Wed 02:53:30 PM 42.2308 -88.2075 123° Southeast 260 299 7,000 -677 Level Chicago Center
Wed 02:54:32 PM 42.1686 -88.1361 140° Southeast 244 281 5,600 -1,355 Descending Chicago Center
Wed 02:55:34 PM 42.1183 -88.0792 140° Southeast 240 276 4,200 -1,355 Descending Chicago Center
Wed 02:56:36 PM 42.0703 -88.0247 140° Southeast 233 268 2,800 -1,355 Descending Chicago Center

Login

Don't have an account? Register now (free) for customized features, flight alerts, and more!